Time,TemperatureF,DewpointF,PressureIn,WindDirection,WindDirectionDegrees,WindSpeedMPH,WindSpeedGustMPH,Humidity,HourlyPrecipIn,Conditions,Clouds,dailyrainin,SoftwareType,DateUTC
2013-08-06 00:00:00,52.7,51.0,29.59,WSW,256,0.0,0.0,94,0.00,,OVC007,0.00,VWS V14.01,2013-08-06 07:00:00,
2013-08-06 00:10:00,52.9,51.5,29.59,WSW,256,0.0,0.0,95,0.00,,OVC007,0.00,VWS V14.01,2013-08-06 07:10:00,
2013-08-06 00:20:00,52.9,51.5,29.59,WSW,256,0.0,0.0,95,0.00,,OVC007,0.00,VWS V14.01,2013-08-06 07:20:00,
2013-08-06 00:30:00,53.1,51.7,29.59,WSW,256,0.0,0.0,95,0.00,,OVC007,0.00,VWS V14.01,2013-08-06 07:30:00,
2013-08-06 00:40:00,53.1,51.7,29.59,WSW,256,0.0,0.0,95,0.00,,OVC007,0.00,VWS V14.01,2013-08-06 07:40:00,
2013-08-06 00:50:00,53.1,52.0,29.59,WSW,256,0.0,0.0,96,0.00,,OVC007,0.00,VWS V14.01,2013-08-06 07:50:00,
2013-08-06 01:00:00,53.2,52.1,29.59,WSW,256,0.0,0.0,96,0.00,,OVC007,0.00,VWS V14.01,2013-08-06 08:00:00,
2013-08-06 01:10:00,53.2,52.1,29.59,WSW,256,0.0,0.0,96,0.00,,OVC007,0.00,VWS V14.01,2013-08-06 08:10:00,
2013-08-06 01:20:00,53.6,52.5,29.59,WSW,256,0.0,0.0,96,0.00,,OVC007,0.00,VWS V14.01,2013-08-06 08:20:00,
2013-08-06 01:30:00,53.6,52.5,29.59,WSW,256,0.0,0.0,96,0.00,,OVC007,0.00,VWS V14.01,2013-08-06 08:30:00,
2013-08-06 01:40:00,53.6,52.5,29.59,WSW,256,0.0,0.0,96,0.00,,OVC007,0.00,VWS V14.01,2013-08-06 08:40:00,
2013-08-06 01:50:00,53.6,52.8,29.59,WSW,256,0.0,0.0,97,0.00,,OVC007,0.00,VWS V14.01,2013-08-06 08:50:00,
2013-08-06 02:00:00,53.6,52.8,29.59,West,276,0.0,0.0,97,0.00,,OVC007,0.00,VWS V14.01,2013-08-06 09:00:00,
2013-08-06 02:10:00,53.6,52.8,29.59,West,276,0.0,0.0,97,0.00,,OVC007,0.00,VWS V14.01,2013-08-06 09:10:00,
2013-08-06 02:20:00,53.6,52.8,29.59,West,276,0.0,0.0,97,0.00,,OVC007,0.00,VWS V14.01,2013-08-06 09:20:00,
2013-08-06 02:30:00,53.8,53.0,29.59,West,276,0.0,0.0,97,0.00,,OVC007,0.00,VWS V14.01,2013-08-06 09:30:00,
2013-08-06 02:40:00,54.0,53.1,29.59,West,276,0.0,0.0,97,0.00,,OVC007,0.00,VWS V14.01,2013-08-06 09:40:00,
2013-08-06 02:50:00,53.6,52.8,29.59,West,276,0.0,0.0,97,0.00,,OVC005,0.00,VWS V14.01,2013-08-06 09:50:00,
2013-08-06 03:00:00,53.8,53.0,29.59,West,276,0.0,0.0,97,0.00,,OVC005,0.00,VWS V14.01,2013-08-06 10:00:00,
2013-08-06 03:10:00,54.1,53.6,29.59,West,276,0.0,0.0,98,0.00,,OVC005,0.00,VWS V14.01,2013-08-06 10:10:00,
2013-08-06 03:20:00,54.3,53.5,29.59,West,276,0.0,0.0,97,0.00,,OVC005,0.00,VWS V14.01,2013-08-06 10:20:00,
2013-08-06 03:30:00,54.3,53.5,29.59,West,276,0.0,0.0,97,0.00,,OVC005,0.00,VWS V14.01,2013-08-06 10:30:00,
2013-08-06 03:40:00,54.0,53.1,29.59,West,279,0.0,0.0,97,0.00,,OVC005,0.00,VWS V14.01,2013-08-06 10:40:00,
2013-08-06 03:50:00,53.8,53.0,29.59,West,279,0.0,0.0,97,0.00,,OVC005,0.00,VWS V14.01,2013-08-06 10:50:00,
2013-08-06 04:00:00,54.0,53.1,29.59,West,279,0.0,0.0,97,0.00,,OVC005,0.00,VWS V14.01,2013-08-06 11:00:00,
2013-08-06 04:10:00,53.8,53.0,29.59,West,279,0.0,0.0,97,0.00,,OVC005,0.00,VWS V14.01,2013-08-06 11:10:00,
2013-08-06 04:20:00,53.8,53.0,29.59,West,279,0.0,0.0,97,0.00,,OVC005,0.00,VWS V14.01,2013-08-06 11:20:00,
2013-08-06 04:30:00,53.8,53.0,29.59,West,279,0.0,0.0,97,0.00,,OVC005,0.00,VWS V14.01,2013-08-06 11:30:00,
2013-08-06 04:40:00,53.8,53.0,29.59,West,279,0.0,0.0,97,0.00,,OVC005,0.00,VWS V14.01,2013-08-06 11:40:00,
2013-08-06 04:50:00,53.8,53.0,29.59,West,279,0.0,0.0,97,0.00,,OVC005,0.00,VWS V14.01,2013-08-06 11:50:00,
2013-08-06 05:00:00,53.6,52.8,29.59,West,279,0.0,0.0,97,0.00,,OVC005,0.00,VWS V14.01,2013-08-06 12:00:00,
2013-08-06 05:10:00,53.6,52.8,29.59,West,279,0.0,0.0,97,0.00,,OVC005,0.00,VWS V14.01,2013-08-06 12:10:00,
2013-08-06 05:20:00,53.4,52.6,29.59,West,279,0.0,0.0,97,0.00,,OVC005,0.00,VWS V14.01,2013-08-06 12:20:00,
2013-08-06 05:30:00,53.4,52.6,29.59,West,279,0.0,0.0,97,0.00,,OVC005,0.00,VWS V14.01,2013-08-06 12:30:00,
2013-08-06 05:40:00,53.4,52.6,29.59,West,279,0.0,0.0,97,0.00,,OVC005,0.00,VWS V14.01,2013-08-06 12:40:00,
2013-08-06 05:50:00,53.2,52.4,29.59,West,279,0.0,0.0,97,0.00,,OVC005,0.00,VWS V14.01,2013-08-06 12:50:00,
2013-08-06 06:00:00,53.4,52.6,29.59,West,279,0.0,0.0,97,0.00,,OVC005,0.00,VWS V14.01,2013-08-06 13:00:00,
2013-08-06 06:10:00,53.4,52.6,29.59,West,279,0.0,0.0,97,0.00,,OVC003,0.00,VWS V14.01,2013-08-06 13:10:00,
2013-08-06 06:20:00,53.4,52.9,29.59,West,279,0.0,0.0,98,0.00,,OVC003,0.00,VWS V14.01,2013-08-06 13:20:00,
2013-08-06 06:30:00,53.4,52.9,29.59,West,279,0.0,0.0,98,0.00,,OVC003,0.00,VWS V14.01,2013-08-06 13:30:00,
2013-08-06 06:40:00,53.1,52.5,29.59,West,279,0.0,0.0,98,0.00,,OVC003,0.00,VWS V14.01,2013-08-06 13:40:00,
2013-08-06 06:50:00,52.9,52.3,29.59,West,279,0.0,0.0,98,0.00,,OVC003,0.00,VWS V14.01,2013-08-06 13:50:00,
2013-08-06 07:00:00,52.9,52.3,29.59,West,279,0.0,0.0,98,0.00,,OVC003,0.00,VWS V14.01,2013-08-06 14:00:00,
2013-08-06 07:10:00,53.1,52.5,29.59,West,279,0.0,0.0,98,0.00,,OVC003,0.00,VWS V14.01,2013-08-06 14:10:00,
2013-08-06 07:20:00,53.4,52.9,29.59,West,279,0.0,0.0,98,0.00,,OVC003,0.00,VWS V14.01,2013-08-06 14:20:00,
2013-08-06 07:30:00,53.8,53.2,29.59,West,279,0.0,0.0,98,0.00,,OVC003,0.00,VWS V14.01,2013-08-06 14:30:00,
2013-08-06 07:40:00,54.1,53.6,29.59,West,270,0.0,0.0,98,0.00,,OVC003,0.00,VWS V14.01,2013-08-06 14:40:00,
2013-08-06 07:50:00,54.5,54.0,29.62,WSW,242,0.0,0.0,98,0.00,,,0.00,VWS V14.01,2013-08-06 14:50:00,
2013-08-06 08:00:00,54.7,54.1,29.62,WSW,241,0.0,0.0,98,0.00,,,0.00,VWS V14.01,2013-08-06 15:00:00,
2013-08-06 08:10:00,55.0,54.5,29.62,SSW,203,0.0,0.0,98,0.00,,,0.00,VWS V14.01,2013-08-06 15:10:00,
2013-08-06 08:20:00,55.2,54.4,29.62,SSW,203,0.0,0.0,97,0.00,,,0.00,VWS V14.01,2013-08-06 15:20:00,
2013-08-06 08:30:00,55.4,54.0,29.62,SSW,203,0.0,0.0,95,0.00,,,0.00,VWS V14.01,2013-08-06 15:30:00,
2013-08-06 08:40:00,54.9,52.9,29.62,WNW,297,0.0,0.0,93,0.00,,,0.00,VWS V14.01,2013-08-06 15:40:00,
2013-08-06 08:50:00,55.2,53.2,29.62,NW,313,0.0,0.0,93,0.00,,,0.00,VWS V14.01,2013-08-06 15:50:00,
2013-08-06 09:00:00,55.4,53.1,29.62,North,0,0.0,0.0,92,0.00,,,0.00,VWS V14.01,2013-08-06 16:00:00,
2013-08-06 09:10:00,56.3,54.3,29.62,North,0,0.0,0.0,93,0.00,,,0.00,VWS V14.01,2013-08-06 16:10:00,
2013-08-06 09:20:00,56.7,54.7,29.62,WSW,239,0.0,0.0,93,0.00,,,0.00,VWS V14.01,2013-08-06 16:20:00,
2013-08-06 09:30:00,57.0,54.7,29.62,SSW,208,0.0,0.0,92,0.00,,,0.00,VWS V14.01,2013-08-06 16:30:00,
2013-08-06 09:40:00,57.6,55.0,29.62,ESE,120,0.0,0.0,91,0.00,,,0.00,VWS V14.01,2013-08-06 16:40:00,
2013-08-06 09:50:00,57.6,54.0,29.62,ENE,74,0.0,0.0,88,0.00,,,0.00,VWS V14.01,2013-08-06 16:50:00,
2013-08-06 10:00:00,57.9,53.8,29.62,NE,49,0.0,0.0,86,0.00,,,0.00,VWS V14.01,2013-08-06 17:00:00,
2013-08-06 10:10:00,58.6,54.8,29.62,WSW,255,0.0,0.0,87,0.00,,,0.00,VWS V14.01,2013-08-06 17:10:00,
2013-08-06 10:20:00,59.0,54.8,29.62,WSW,249,3.1,3.1,86,0.00,,,0.00,VWS V14.01,2013-08-06 17:20:00,
2013-08-06 10:30:00,59.5,55.0,29.62,WSW,249,3.1,3.1,85,0.00,,,0.00,VWS V14.01,2013-08-06 17:30:00,
2013-08-06 10:40:00,59.7,54.9,29.62,West,268,3.1,3.1,84,0.00,,,0.00,VWS V14.01,2013-08-06 17:40:00,
2013-08-06 10:50:00,61.0,56.1,29.62,WNW,284,0.0,3.1,84,0.00,,,0.00,VWS V14.01,2013-08-06 17:50:00,
2013-08-06 11:00:00,61.0,56.1,29.62,WSW,243,0.0,2.7,84,0.00,,,0.00,VWS V14.01,2013-08-06 18:00:00,
2013-08-06 11:10:00,63.9,56.5,29.62,SW,227,0.0,3.6,77,0.00,,,0.00,VWS V14.01,2013-08-06 18:10:00,
2013-08-06 11:20:00,64.8,55.5,29.62,WNW,300,2.7,3.6,72,0.00,,,0.00,VWS V14.01,2013-08-06 18:20:00,
2013-08-06 11:30:00,64.8,55.9,29.62,WNW,289,0.0,4.0,73,0.00,,,0.00,VWS V14.01,2013-08-06 18:30:00,
2013-08-06 11:40:00,65.7,56.4,29.62,SW,235,2.2,5.4,72,0.00,,,0.00,VWS V14.01,2013-08-06 18:40:00,
2013-08-06 11:50:00,66.2,57.3,29.62,SW,214,0.0,4.9,73,0.00,,BKN015,0.00,VWS V14.01,2013-08-06 18:50:00,
2013-08-06 12:00:00,66.4,56.3,29.62,WSW,237,3.6,4.0,70,0.00,,BKN015,0.00,VWS V14.01,2013-08-06 19:00:00,
2013-08-06 12:10:00,66.7,56.3,29.62,NNW,348,0.0,3.6,69,0.00,,SCT050,0.00,VWS V14.01,2013-08-06 19:10:00,
2013-08-06 12:20:00,67.3,55.1,29.62,NNW,329,3.1,3.1,65,0.00,,,0.00,VWS V14.01,2013-08-06 19:20:00,
2013-08-06 12:30:00,67.3,55.1,29.62,WNW,284,0.0,3.1,65,0.00,,SCT050,0.00,VWS V14.01,2013-08-06 19:30:00,
2013-08-06 12:40:00,67.8,56.1,29.62,NNW,333,0.0,2.2,66,0.00,,SCT050,0.00,VWS V14.01,2013-08-06 19:40:00,
2013-08-06 12:50:00,68.4,54.8,29.62,North,8,2.7,2.7,62,0.00,,SCT100,0.00,VWS V14.01,2013-08-06 19:50:00,
2013-08-06 13:00:00,69.1,55.5,29.62,North,11,0.0,2.7,62,0.00,,SCT100,0.00,VWS V14.01,2013-08-06 20:00:00,
2013-08-06 13:10:00,69.6,55.6,29.62,West,281,0.0,2.2,61,0.00,,SCT100,0.00,VWS V14.01,2013-08-06 20:10:00,
2013-08-06 13:20:00,69.8,54.8,29.62,NE,38,2.2,3.6,59,0.00,,SCT050,0.00,VWS V14.01,2013-08-06 20:20:00,
2013-08-06 13:30:00,69.4,55.0,29.59,East,79,0.0,3.6,60,0.00,,SCT100,0.00,VWS V14.01,2013-08-06 20:30:00,
2013-08-06 13:40:00,69.4,55.0,29.59,West,273,0.0,0.0,60,0.00,,SCT100,0.00,VWS V14.01,2013-08-06 20:40:00,
2013-08-06 13:50:00,69.3,53.9,29.59,NE,54,2.2,3.6,58,0.00,,BKN180,0.00,VWS V14.01,2013-08-06 20:50:00,
2013-08-06 14:00:00,70.0,55.0,29.59,WSW,247,2.7,3.6,59,0.00,,BKN180,0.00,VWS V14.01,2013-08-06 21:00:00,
2013-08-06 14:10:00,69.6,54.2,29.59,West,267,0.0,3.1,58,0.00,,BKN180,0.00,VWS V14.01,2013-08-06 21:10:00,
2013-08-06 14:20:00,70.0,55.0,29.59,ENE,76,0.0,3.1,59,0.00,,BKN180,0.00,VWS V14.01,2013-08-06 21:20:00,
2013-08-06 14:30:00,70.0,54.5,29.59,WSW,240,0.0,0.0,58,0.00,,BKN180,0.00,VWS V14.01,2013-08-06 21:30:00,
2013-08-06 14:40:00,70.3,54.4,29.59,NE,49,3.6,3.6,57,0.00,,BKN180,0.00,VWS V14.01,2013-08-06 21:40:00,
2013-08-06 14:50:00,70.2,53.8,29.59,SSE,165,0.0,3.6,56,0.00,,CLR,0.00,VWS V14.01,2013-08-06 21:50:00,
2013-08-06 15:00:00,68.7,54.3,29.59,West,277,0.0,4.9,60,0.00,,BKN200,0.00,VWS V14.01,2013-08-06 22:00:00,
2013-08-06 15:10:00,68.9,54.9,29.59,NE,41,0.0,3.1,61,0.00,,BKN200,0.00,VWS V14.01,2013-08-06 22:10:00,
2013-08-06 15:20:00,68.7,54.3,29.59,SW,233,2.7,2.7,60,0.00,,BKN200,0.00,VWS V14.01,2013-08-06 22:20:00,
2013-08-06 15:30:00,68.7,55.2,29.59,WNW,295,0.0,3.6,62,0.00,,BKN200,0.00,VWS V14.01,2013-08-06 22:30:00,
2013-08-06 15:40:00,68.9,55.4,29.59,ENE,58,0.0,2.2,62,0.00,,BKN200,0.00,VWS V14.01,2013-08-06 22:40:00,
2013-08-06 15:50:00,68.9,54.5,29.59,North,10,0.0,0.0,60,0.00,,BKN200,0.00,VWS V14.01,2013-08-06 22:50:00,
2013-08-06 16:00:00,68.7,54.7,29.59,NNE,29,2.7,4.0,61,0.00,,BKN200,0.00,VWS V14.01,2013-08-06 23:00:00,
2013-08-06 16:10:00,68.5,53.7,29.59,WSW,239,0.0,2.7,59,0.00,,BKN200,0.00,VWS V14.01,2013-08-06 23:10:00,
2013-08-06 16:20:00,68.7,55.6,29.59,NNE,27,0.0,0.0,63,0.00,,BKN200,0.00,VWS V14.01,2013-08-06 23:20:00,
2013-08-06 16:30:00,69.3,55.2,29.59,ESE,107,0.0,0.0,61,0.00,,BKN200,0.00,VWS V14.01,2013-08-06 23:30:00,
2013-08-06 16:40:00,69.3,55.2,29.59,NNE,21,2.7,2.7,61,0.00,,BKN200,0.00,VWS V14.01,2013-08-06 23:40:00,
2013-08-06 16:50:00,68.0,54.5,29.59,NE,50,2.2,2.7,62,0.00,,BKN200,0.00,VWS V14.01,2013-08-06 23:50:00,
2013-08-06 17:00:00,67.5,54.9,29.59,NNW,330,0.0,2.2,64,0.00,,BKN200,0.00,VWS V14.01,2013-08-07 00:00:00,
2013-08-06 17:10:00,66.7,54.6,29.59,WNW,291,0.0,0.0,65,0.00,,BKN200,0.00,VWS V14.01,2013-08-07 00:10:00,
2013-08-06 17:20:00,66.0,55.2,29.59,WNW,287,0.0,3.1,68,0.00,,BKN200,0.00,VWS V14.01,2013-08-07 00:20:00,
2013-08-06 17:30:00,65.7,54.8,29.59,East,93,0.0,0.0,68,0.00,,BKN200,0.00,VWS V14.01,2013-08-07 00:30:00,
2013-08-06 17:40:00,65.1,54.3,29.59,NE,56,0.0,2.7,68,0.00,,BKN200,0.00,VWS V14.01,2013-08-07 00:40:00,
2013-08-06 17:50:00,64.4,54.4,29.59,East,81,0.0,0.0,70,0.00,,BKN200,0.00,VWS V14.01,2013-08-07 00:50:00,
2013-08-06 18:00:00,64.0,54.8,29.59,East,100,0.0,0.0,72,0.00,,BKN200,0.00,VWS V14.01,2013-08-07 01:00:00,
2013-08-06 18:10:00,63.9,55.0,29.59,East,90,0.0,0.0,73,0.00,,BKN200,0.00,VWS V14.01,2013-08-07 01:10:00,
2013-08-06 18:20:00,63.7,54.9,29.59,East,94,2.2,2.2,73,0.00,,BKN200,0.00,VWS V14.01,2013-08-07 01:20:00,
2013-08-06 18:30:00,63.1,54.3,29.59,ESE,118,0.0,2.2,73,0.00,,BKN200,0.00,VWS V14.01,2013-08-07 01:30:00,
2013-08-06 18:40:00,63.1,54.3,29.59,SSW,208,0.0,0.0,73,0.00,,BKN200,0.00,VWS V14.01,2013-08-07 01:40:00,
2013-08-06 18:50:00,62.8,54.0,29.59,WSW,254,0.0,0.0,73,0.00,,BKN250,0.00,VWS V14.01,2013-08-07 01:50:00,
2013-08-06 19:00:00,62.4,54.4,29.59,WNW,291,0.0,0.0,75,0.00,,BKN250,0.00,VWS V14.01,2013-08-07 02:00:00,
2013-08-06 19:10:00,61.9,53.9,29.59,NNW,341,0.0,0.0,75,0.00,,BKN250,0.00,VWS V14.01,2013-08-07 02:10:00,
2013-08-06 19:20:00,61.2,53.5,29.59,North,7,0.0,0.0,76,0.00,,BKN250,0.00,VWS V14.01,2013-08-07 02:20:00,
2013-08-06 19:30:00,60.6,53.7,29.59,SW,235,0.0,0.0,78,0.00,,BKN250,0.00,VWS V14.01,2013-08-07 02:30:00,
2013-08-06 19:40:00,60.6,54.1,29.59,NE,44,0.0,0.0,79,0.00,,BKN250,0.00,VWS V14.01,2013-08-07 02:40:00,
2013-08-06 19:50:00,60.4,53.9,29.59,West,267,0.0,0.0,79,0.00,,SCT200,0.00,VWS V14.01,2013-08-07 02:50:00,
2013-08-06 20:00:00,60.1,53.9,29.59,WSW,244,0.0,0.0,80,0.00,,SCT200,0.00,VWS V14.01,2013-08-07 03:00:00,
2013-08-06 20:10:00,59.7,53.5,29.59,ENE,70,0.0,0.0,80,0.00,,SCT200,0.00,VWS V14.01,2013-08-07 03:10:00,
2013-08-06 20:20:00,59.7,53.5,29.59,NW,318,0.0,0.0,80,0.00,,SCT200,0.00,VWS V14.01,2013-08-07 03:20:00,
2013-08-06 20:30:00,59.4,53.9,29.59,WSW,250,0.0,0.0,82,0.00,,SCT200,0.00,VWS V14.01,2013-08-07 03:30:00,
2013-08-06 20:40:00,59.0,53.5,29.59,WSW,250,0.0,0.0,82,0.00,,SCT200,0.00,VWS V14.01,2013-08-07 03:40:00,
2013-08-06 20:50:00,58.8,53.7,29.62,SW,220,0.0,0.0,83,0.00,,SCT200,0.00,VWS V14.01,2013-08-07 03:50:00,
2013-08-06 21:00:00,58.5,53.7,29.62,West,268,0.0,0.0,84,0.00,,SCT200,0.00,VWS V14.01,2013-08-07 04:00:00,
2013-08-06 21:10:00,58.5,53.7,29.62,East,98,0.0,0.0,84,0.00,,SCT200,0.00,VWS V14.01,2013-08-07 04:10:00,
2013-08-06 21:20:00,58.5,54.0,29.62,WNW,283,0.0,0.0,85,0.00,,SCT200,0.00,VWS V14.01,2013-08-07 04:20:00,
2013-08-06 21:30:00,58.6,54.5,29.62,West,280,0.0,0.0,86,0.00,,SCT200,0.00,VWS V14.01,2013-08-07 04:30:00,
2013-08-06 21:40:00,58.6,54.5,29.62,West,280,0.0,0.0,86,0.00,,SCT200,0.00,VWS V14.01,2013-08-07 04:40:00,
2013-08-06 21:50:00,58.6,54.5,29.62,West,280,0.0,0.0,86,0.00,,CLR,0.00,VWS V14.01,2013-08-07 04:50:00,
2013-08-06 22:00:00,58.8,55.0,29.62,WSW,246,0.0,0.0,87,0.00,,CLR,0.00,VWS V14.01,2013-08-07 05:00:00,
2013-08-06 22:10:00,58.8,55.0,29.62,South,169,0.0,0.0,87,0.00,,CLR,0.00,VWS V14.01,2013-08-07 05:10:00,
2013-08-06 22:20:00,58.6,54.8,29.62,South,170,0.0,0.0,87,0.00,,CLR,0.00,VWS V14.01,2013-08-07 05:20:00,
2013-08-06 22:30:00,58.5,54.6,29.65,South,169,0.0,0.0,87,0.00,,CLR,0.00,VWS V14.01,2013-08-07 05:30:00,
2013-08-06 22:40:00,58.5,54.6,29.65,SSE,164,0.0,0.0,87,0.00,,CLR,0.00,VWS V14.01,2013-08-07 05:40:00,
2013-08-06 22:50:00,58.5,54.9,29.65,SW,231,0.0,0.0,88,0.00,,BKN015,0.00,VWS V14.01,2013-08-07 05:50:00,
2013-08-06 23:00:00,58.5,54.9,29.65,ENE,57,0.0,0.0,88,0.00,,BKN015,0.00,VWS V14.01,2013-08-07 06:00:00,
2013-08-06 23:10:00,58.5,54.9,29.65,ENE,57,0.0,0.0,88,0.00,,BKN015,0.00,VWS V14.01,2013-08-07 06:10:00,
2013-08-06 23:20:00,58.5,55.2,29.65,ENE,59,0.0,0.0,89,0.00,,BKN015,0.00,VWS V14.01,2013-08-07 06:20:00,
2013-08-06 23:30:00,58.5,55.2,29.65,ENE,61,0.0,0.0,89,0.00,,BKN015,0.00,VWS V14.01,2013-08-07 06:30:00,
2013-08-06 23:40:00,58.3,55.1,29.65,ENE,61,0.0,0.0,89,0.00,,BKN015,0.00,VWS V14.01,2013-08-07 06:40:00,
2013-08-06 23:50:00,58.3,55.1,29.65,ENE,61,0.0,0.0,89,0.00,,BKN013,0.00,VWS V14.01,2013-08-07 06:50:00,